createdAt,value
2018-02-24T00:00:25.698Z,56.37
2018-02-24T00:02:53.353Z,58.53
2018-02-24T00:05:20.953Z,46.87
2018-02-24T00:07:48.611Z,54.53
2018-02-24T00:10:16.786Z,59.50
2018-02-24T00:12:44.372Z,44.50
2018-02-24T00:15:14.308Z,45.90
2018-02-24T00:17:45.734Z,56.30
2018-02-24T00:20:15.071Z,53.00
2018-02-24T00:22:43.733Z,48.97
2018-02-24T00:25:12.801Z,44.00
2018-02-24T00:27:40.494Z,53.00
2018-02-24T00:30:11.664Z,51.30
2018-02-24T00:32:39.578Z,50.20
2018-02-24T00:35:10.314Z,47.73
2018-02-24T00:37:39.972Z,47.87
2018-02-24T00:40:08.863Z,49.13
2018-02-24T00:42:44.547Z,49.33
2018-02-24T00:45:13.496Z,46.00
2018-02-24T00:47:41.084Z,56.23
2018-02-24T00:50:08.740Z,48.40
2018-02-24T00:52:36.369Z,45.63
2018-02-24T00:55:04.224Z,51.10
2018-02-24T00:57:31.878Z,48.40
2018-02-24T00:59:59.584Z,45.00
2018-02-24T01:02:27.202Z,55.40
2018-02-24T01:04:54.811Z,48.67
2018-02-24T01:07:23.407Z,45.20
2018-02-24T01:09:51.014Z,58.70
2018-02-24T01:12:18.667Z,44.27
2018-02-24T01:14:46.250Z,49.53
2018-02-24T01:17:14.394Z,49.73
2018-02-24T01:19:42.068Z,51.80
2018-02-24T01:22:10.101Z,45.47
2018-02-24T01:24:37.723Z,47.33
2018-02-24T01:27:06.384Z,42.07
2018-02-24T01:29:34.222Z,41.20
2018-02-24T01:32:01.847Z,53.60
2018-02-24T01:34:29.444Z,44.00
2018-02-24T01:36:57.109Z,43.80
2018-02-24T01:39:25.498Z,39.53
2018-02-24T01:41:53.150Z,38.13
2018-02-24T01:44:20.754Z,41.27
2018-02-24T01:46:48.348Z,48.07
2018-02-24T01:49:16.729Z,46.30
2018-02-24T01:51:44.342Z,54.43
2018-02-24T01:54:11.955Z,37.00
2018-02-24T01:56:45.234Z,39.63
2018-02-24T01:59:17.267Z,43.20
2018-02-24T02:01:49.816Z,47.33
2018-02-24T02:04:23.003Z,42.03
2018-02-24T02:06:55.790Z,33.33
2018-02-24T02:09:28.672Z,35.67
2018-02-24T02:12:02.181Z,40.20
2018-02-24T02:14:34.513Z,31.30
2018-02-24T02:17:07.034Z,36.47
2018-02-24T02:19:39.734Z,37.27
2018-02-24T02:22:14.886Z,34.40
2018-02-24T02:24:47.574Z,44.30
2018-02-24T02:27:20.119Z,29.13
2018-02-24T02:29:53.891Z,32.37
2018-02-24T02:32:27.553Z,31.27
2018-02-24T02:35:00.605Z,37.37
2018-02-24T02:37:33.208Z,51.67
2018-02-24T02:40:08.392Z,33.63
2018-02-24T02:42:35.981Z,34.40
2018-02-24T02:45:09.684Z,29.30
2018-02-24T02:47:41.847Z,34.67
2018-02-24T02:50:16.477Z,38.47
2018-02-24T02:52:48.909Z,33.67
2018-02-24T02:55:21.826Z,37.93
2018-02-24T02:57:49.797Z,30.67
2018-02-24T03:00:17.789Z,38.47
2018-02-24T03:02:52.453Z,54.13
2018-02-24T03:05:23.375Z,35.63
2018-02-24T03:07:56.535Z,38.60
2018-02-24T03:10:30.288Z,42.30
2018-02-24T03:13:02.804Z,46.90
2018-02-24T03:15:36.167Z,51.90
2018-02-24T03:18:04.690Z,34.07
2018-02-24T03:20:32.303Z,30.97
2018-02-24T03:22:59.907Z,45.80
2018-02-24T03:25:27.526Z,42.53
2018-02-24T03:27:55.113Z,36.97
2018-02-24T03:30:24.151Z,35.70
2018-02-24T03:32:52.578Z,43.27
2018-02-24T03:35:20.266Z,34.57
2018-02-24T03:37:47.919Z,34.53
2018-02-24T03:40:19.424Z,30.77
2018-02-24T03:42:47.225Z,34.20
2018-02-24T03:45:15.469Z,34.97
2018-02-24T03:47:43.074Z,33.23
2018-02-24T03:50:10.769Z,31.97
2018-02-24T03:52:38.676Z,33.30
2018-02-24T03:55:06.389Z,39.90
2018-02-24T03:57:34.963Z,33.90
2018-02-24T04:00:02.862Z,34.63
2018-02-24T04:02:30.479Z,32.93
2018-02-24T04:04:58.198Z,40.03
2018-02-24T04:07:26.909Z,30.87
2018-02-24T04:09:54.507Z,29.53
2018-02-24T04:12:22.783Z,39.93
2018-02-24T04:14:50.646Z,39.67
2018-02-24T04:17:18.644Z,32.77
2018-02-24T04:19:46.221Z,36.63
2018-02-24T04:22:14.028Z,42.20
2018-02-24T04:24:45.607Z,41.93
2018-02-24T04:27:13.422Z,35.37
2018-02-24T04:29:41.005Z,37.83
2018-02-24T04:34:41.378Z,32.20
2018-02-24T04:37:09.734Z,31.00
2018-02-24T04:39:37.349Z,41.73
2018-02-24T04:42:05.015Z,35.17
2018-02-24T04:44:32.675Z,34.40
2018-02-24T04:47:00.295Z,42.00
2018-02-24T04:49:27.894Z,39.73
2018-02-24T04:51:55.484Z,39.50
2018-02-24T04:54:23.219Z,36.13
2018-02-24T04:56:50.805Z,38.97
2018-02-24T04:59:18.802Z,32.20
2018-02-24T05:01:46.471Z,35.50
2018-02-24T05:04:14.082Z,33.87
2018-02-24T05:06:41.668Z,34.67
2018-02-24T05:09:10.213Z,43.07
2018-02-24T05:11:37.997Z,36.30
2018-02-24T05:14:05.665Z,36.10
2018-02-24T05:16:33.325Z,39.23
2018-02-24T05:19:00.950Z,33.43
2018-02-24T05:21:30.124Z,37.83
2018-02-24T05:23:57.797Z,35.40
2018-02-24T05:26:25.668Z,30.93
2018-02-24T05:28:53.295Z,42.40
2018-02-24T05:34:11.770Z,37.43
2018-02-24T05:36:39.353Z,38.10
2018-02-24T05:39:07.289Z,38.13
2018-02-24T05:41:35.453Z,43.53
2018-02-24T05:44:03.102Z,38.90
2018-02-24T05:46:30.713Z,45.90
2018-02-24T05:48:58.347Z,49.90
2018-02-24T05:51:26.288Z,56.23
2018-02-24T05:53:54.077Z,50.17
2018-02-24T05:56:21.915Z,49.00
2018-02-24T05:59:01.289Z,45.80
2018-02-24T06:01:30.209Z,37.10
2018-02-24T06:03:57.814Z,49.00
2018-02-24T06:06:25.704Z,38.87
2018-02-24T06:08:53.427Z,31.13
2018-02-24T06:11:21.610Z,38.70
2018-02-24T06:13:49.466Z,42.90
2018-02-24T06:16:17.081Z,36.80
2018-02-24T06:18:44.709Z,31.07
2018-02-24T06:21:12.937Z,39.60
2018-02-24T06:23:40.538Z,37.87
2018-02-24T06:26:08.216Z,38.10
2018-02-24T06:28:35.875Z,38.47
2018-02-24T06:31:03.609Z,40.77
2018-02-24T06:33:31.274Z,31.03
2018-02-24T06:35:58.941Z,38.43
2018-02-24T06:38:26.601Z,34.63
2018-02-24T06:40:54.221Z,40.07
2018-02-24T06:43:22.200Z,42.07
2018-02-24T06:45:50.107Z,41.77
2018-02-24T06:48:17.794Z,37.47
2018-02-24T06:50:45.462Z,33.70
2018-02-24T06:53:13.394Z,39.33
2018-02-24T06:55:40.967Z,40.90
2018-02-24T06:58:08.698Z,32.03
2018-02-24T07:00:36.374Z,35.13
2018-02-24T07:03:04.073Z,34.13
2018-02-24T07:05:31.689Z,28.70
2018-02-24T07:08:01.715Z,47.03
2018-02-24T07:10:29.439Z,38.30
2018-02-24T07:12:57.091Z,32.43
2018-02-24T07:15:25.827Z,30.70
2018-02-24T07:17:54.821Z,32.23
2018-02-24T07:20:22.568Z,38.23
2018-02-24T07:22:52.260Z,34.40
2018-02-24T07:25:19.977Z,34.90
2018-02-24T07:27:47.992Z,38.70
2018-02-24T07:32:48.716Z,34.33
2018-02-24T07:35:16.759Z,35.60
2018-02-24T07:37:44.399Z,41.77
2018-02-24T07:40:12.891Z,41.43
2018-02-24T07:42:40.514Z,32.77
2018-02-24T07:45:09.877Z,40.37
2018-02-24T07:47:37.647Z,37.10
2018-02-24T07:50:05.268Z,42.83
2018-02-24T07:52:32.924Z,33.93
2018-02-24T07:55:00.604Z,37.03
2018-02-24T07:57:28.735Z,33.50
2018-02-24T07:59:56.419Z,35.53
2018-02-24T08:02:24.042Z,37.73
2018-02-24T08:04:51.717Z,35.33
2018-02-24T08:07:19.379Z,41.93
2018-02-24T08:09:47.026Z,38.57
2018-02-24T08:12:14.673Z,41.67
2018-02-24T08:14:42.293Z,46.27
2018-02-24T08:17:12.584Z,30.43
2018-02-24T08:19:40.183Z,41.40
2018-02-24T08:22:07.831Z,41.10
2018-02-24T08:24:35.536Z,32.13
2018-02-24T08:27:03.394Z,38.57
2018-02-24T08:29:32.337Z,33.63
2018-02-24T08:31:59.945Z,39.67
2018-02-24T08:34:27.798Z,45.70
2018-02-24T08:36:55.385Z,33.17
2018-02-24T08:39:24.353Z,39.67
2018-02-24T08:41:52.045Z,33.53
2018-02-24T08:44:19.767Z,27.27
2018-02-24T08:46:47.424Z,33.23
2018-02-24T08:49:15.042Z,29.87
2018-02-24T08:51:44.522Z,29.90
2018-02-24T08:54:12.578Z,29.17
2018-02-24T08:56:40.232Z,32.47
2018-02-24T08:59:07.822Z,24.43
2018-02-24T09:01:35.652Z,34.30
2018-02-24T09:04:03.527Z,33.53
2018-02-24T09:06:31.198Z,35.50
2018-02-24T09:08:58.872Z,31.10
2018-02-24T09:11:26.728Z,32.37
2018-02-24T09:13:54.300Z,31.40
2018-02-24T09:16:21.866Z,31.13
2018-02-24T09:18:49.460Z,28.33
2018-02-24T09:21:17.069Z,26.40
2018-02-24T09:23:44.650Z,31.20
2018-02-24T09:26:12.267Z,27.33
2018-02-24T09:28:39.947Z,53.07
2018-02-24T09:31:07.884Z,27.83
2018-02-24T09:33:35.617Z,37.20
2018-02-24T09:36:07.261Z,32.13
2018-02-24T09:38:34.953Z,29.93
2018-02-24T09:41:02.631Z,30.53
2018-02-24T09:43:31.134Z,33.77
2018-02-24T09:45:58.808Z,38.60
2018-02-24T09:48:26.764Z,27.90
2018-02-24T09:50:54.354Z,59.40
2018-02-24T09:53:21.979Z,31.33
2018-02-24T09:55:49.561Z,24.80
2018-02-24T09:58:17.150Z,29.13
2018-02-24T10:00:44.757Z,23.07
2018-02-24T10:03:12.761Z,33.27
2018-02-24T10:05:40.334Z,27.47
2018-02-24T10:08:07.962Z,24.63
2018-02-24T10:10:35.567Z,26.10
2018-02-24T10:13:03.229Z,34.43
2018-02-24T10:15:30.818Z,28.20
2018-02-24T10:17:58.413Z,20.53
2018-02-24T10:20:26.026Z,17.50
2018-02-24T10:22:53.614Z,15.00
2018-02-24T10:25:21.246Z,15.87
2018-02-24T10:27:48.978Z,17.33
2018-02-24T10:30:16.578Z,11.43
2018-02-24T10:32:44.167Z,15.33
2018-02-24T10:35:12.221Z,13.43
2018-02-24T10:37:48.645Z,26.90
2018-02-24T10:40:16.281Z,18.80
2018-02-24T10:42:43.899Z,26.53
2018-02-24T10:45:12.363Z,16.77
2018-02-24T10:47:40.065Z,23.30
2018-02-24T10:50:07.641Z,18.27
2018-02-24T10:52:35.265Z,19.03
2018-02-24T10:55:02.879Z,13.60
2018-02-24T10:57:30.494Z,14.57
2018-02-24T10:59:58.112Z,14.40
2018-02-24T11:02:25.790Z,14.40
2018-02-24T11:04:53.390Z,18.43
2018-02-24T11:07:22.617Z,12.33
2018-02-24T11:09:52.291Z,18.03
2018-02-24T11:12:22.216Z,13.20
2018-02-24T11:14:49.834Z,25.97
2018-02-24T11:17:18.767Z,19.13
2018-02-24T11:19:48.176Z,15.43
2018-02-24T11:22:15.830Z,18.23
2018-02-24T11:24:44.860Z,20.20
2018-02-24T11:27:12.437Z,14.23
2018-02-24T11:29:41.018Z,16.37
2018-02-24T11:32:08.606Z,21.90
2018-02-24T11:34:36.193Z,19.90
2018-02-24T11:37:03.989Z,16.40
2018-02-24T11:39:39.498Z,17.80
2018-02-24T11:42:08.019Z,25.60
2018-02-24T11:44:35.674Z,16.70
2018-02-24T11:47:04.274Z,21.53
2018-02-24T11:49:35.494Z,18.10
2018-02-24T11:52:03.321Z,16.50
2018-02-24T11:54:30.971Z,27.30
2018-02-24T11:56:58.729Z,19.57
2018-02-24T11:59:26.427Z,18.77
2018-02-24T12:01:54.100Z,45.53
2018-02-24T12:04:21.803Z,23.90
2018-02-24T12:06:49.494Z,17.97
2018-02-24T12:09:17.778Z,15.50
2018-02-24T12:11:45.554Z,15.20
2018-02-24T12:14:13.178Z,11.67
2018-02-24T12:16:40.773Z,13.23
2018-02-24T12:19:23.258Z,16.87
2018-02-24T12:21:50.836Z,19.27
2018-02-24T12:24:18.556Z,17.10
2018-02-24T12:26:46.161Z,15.00
2018-02-24T12:29:13.803Z,17.50
2018-02-24T12:31:41.423Z,23.33
2018-02-24T12:34:09.300Z,12.80
2018-02-24T12:36:37.347Z,15.60
2018-02-24T12:39:05.399Z,20.30
2018-02-24T12:41:33.268Z,19.13
2018-02-24T12:44:00.828Z,18.53
2018-02-24T12:46:28.865Z,21.43
2018-02-24T12:48:56.480Z,18.57
2018-02-24T12:51:24.161Z,22.00
2018-02-24T12:53:52.362Z,22.87
2018-02-24T12:56:19.994Z,19.43
2018-02-24T12:58:47.587Z,21.30
2018-02-24T13:01:15.263Z,27.77
2018-02-24T13:03:43.192Z,23.67
2018-02-24T13:06:11.326Z,23.60
2018-02-24T13:08:39.028Z,23.20
2018-02-24T13:11:10.139Z,22.50
2018-02-24T13:13:37.741Z,21.10
2018-02-24T13:16:05.368Z,29.73
2018-02-24T13:18:32.969Z,21.27
2018-02-24T13:21:00.582Z,16.33
2018-02-24T13:23:31.732Z,15.57
2018-02-24T13:26:00.072Z,14.13
2018-02-24T13:28:28.870Z,18.33
2018-02-24T13:30:56.488Z,14.13
2018-02-24T13:33:24.870Z,16.50
2018-02-24T13:35:52.931Z,16.53
2018-02-24T13:38:20.969Z,22.80
2018-02-24T13:40:48.867Z,14.60
2018-02-24T13:43:16.778Z,11.80
2018-02-24T13:45:44.501Z,15.33
2018-02-24T13:48:12.120Z,16.97
2018-02-24T13:50:40.128Z,15.30
2018-02-24T13:53:07.896Z,15.73
2018-02-24T13:55:35.885Z,17.13
2018-02-24T13:58:03.523Z,13.47
2018-02-24T14:00:31.107Z,16.77
2018-02-24T14:02:58.811Z,18.47
2018-02-24T14:05:26.765Z,20.03
2018-02-24T14:07:54.376Z,17.63
2018-02-24T14:10:22.061Z,24.67
2018-02-24T14:12:49.680Z,17.80
2018-02-24T14:15:18.384Z,22.50
2018-02-24T14:17:45.992Z,15.00
2018-02-24T14:20:13.679Z,16.37
2018-02-24T14:22:41.322Z,14.27
2018-02-24T14:25:09.396Z,18.00
2018-02-24T14:27:38.038Z,15.93
2018-02-24T14:30:05.705Z,11.30
2018-02-24T14:32:33.430Z,19.40
2018-02-24T14:35:01.049Z,19.97
2018-02-24T14:37:29.038Z,16.57
2018-02-24T14:39:56.720Z,20.00
2018-02-24T14:42:25.697Z,13.70
2018-02-24T14:44:53.351Z,14.37
2018-02-24T14:47:21.704Z,11.90
2018-02-24T14:49:49.466Z,14.90
2018-02-24T14:52:17.168Z,18.50
2018-02-24T14:54:44.819Z,12.57
2018-02-24T14:57:14.622Z,11.63
2018-02-24T14:59:46.454Z,16.70
2018-02-24T15:02:16.180Z,22.57
2018-02-24T15:04:46.967Z,32.33
2018-02-24T15:07:16.246Z,11.73
2018-02-24T15:09:46.121Z,14.20
2018-02-24T15:12:17.700Z,15.60
2018-02-24T15:14:45.480Z,20.83
2018-02-24T15:17:13.390Z,25.80
2018-02-24T15:19:43.598Z,22.17
2018-02-24T15:22:11.448Z,17.93
2018-02-24T15:24:43.155Z,17.87
2018-02-24T15:27:12.004Z,13.70
2018-02-24T15:29:41.193Z,20.80
2018-02-24T15:32:09.994Z,12.23
2018-02-24T15:34:38.460Z,14.60
2018-02-24T15:37:07.290Z,15.53
2018-02-24T15:39:36.874Z,12.87
2018-02-24T15:42:06.623Z,11.03
2018-02-24T15:44:34.491Z,13.93
2018-02-24T15:47:02.190Z,14.03
2018-02-24T15:49:33.025Z,13.47
2018-02-24T15:52:07.314Z,18.07
2018-02-24T15:54:35.113Z,16.90
2018-02-24T15:57:04.671Z,8.57
2018-02-24T15:59:32.282Z,15.83
2018-02-24T16:01:59.954Z,10.47
2018-02-24T16:04:27.583Z,15.37
2018-02-24T16:06:55.243Z,11.87
2018-02-24T16:09:23.164Z,10.10
2018-02-24T16:11:51.237Z,14.60
2018-02-24T16:14:19.807Z,13.07
2018-02-24T16:16:47.516Z,22.33
2018-02-24T16:19:15.766Z,11.53
2018-02-24T16:21:43.708Z,20.53
2018-02-24T16:24:11.384Z,8.67
2018-02-24T16:26:38.972Z,11.50
2018-02-24T16:29:07.271Z,12.63
2018-02-24T16:31:35.338Z,13.57
2018-02-24T16:34:03.018Z,9.60
2018-02-24T16:36:31.854Z,12.87
2018-02-24T16:38:59.487Z,14.43
2018-02-24T16:41:28.548Z,8.87
2018-02-24T16:43:56.112Z,9.90
2018-02-24T16:46:23.761Z,8.60
2018-02-24T16:48:51.412Z,15.73
2018-02-24T16:51:19.633Z,12.07
2018-02-24T16:53:47.261Z,17.77
2018-02-24T16:56:14.938Z,18.57
2018-02-24T16:58:42.502Z,16.50
2018-02-24T17:01:10.270Z,13.23
2018-02-24T17:03:37.945Z,9.90
2018-02-24T17:06:05.546Z,17.10
2018-02-24T17:08:33.157Z,11.67
2018-02-24T17:11:00.802Z,15.37
2018-02-24T17:13:29.526Z,19.33
2018-02-24T17:15:57.130Z,15.03
2018-02-24T17:18:25.484Z,9.97
2018-02-24T17:20:53.060Z,7.93
2018-02-24T17:23:20.743Z,7.93
2018-02-24T17:25:49.127Z,14.57
2018-02-24T17:28:16.784Z,9.00
2018-02-24T17:30:47.286Z,22.17
2018-02-24T17:33:27.758Z,21.17
2018-02-24T17:35:55.438Z,11.30
2018-02-24T17:38:23.158Z,22.17
2018-02-24T17:40:50.741Z,18.17
2018-02-24T17:43:19.392Z,17.67
2018-02-24T17:45:47.040Z,11.83
2018-02-24T17:48:14.762Z,16.90
2018-02-24T17:50:42.377Z,16.27
2018-02-24T17:53:11.448Z,11.40
2018-02-24T17:55:39.119Z,8.40
2018-02-24T17:58:06.721Z,8.00
2018-02-24T18:00:34.365Z,6.50
2018-02-24T18:03:02.042Z,15.80
2018-02-24T18:05:29.844Z,13.10
2018-02-24T18:07:57.857Z,24.33
2018-02-24T18:10:25.461Z,14.40
2018-02-24T18:12:53.378Z,14.73
2018-02-24T18:15:21.111Z,15.20
2018-02-24T18:17:48.766Z,12.43
2018-02-24T18:23:04.282Z,16.30
2018-02-24T18:25:33.880Z,12.90
2018-02-24T18:28:01.585Z,11.73
2018-02-24T18:30:29.170Z,10.73
2018-02-24T18:32:56.766Z,16.80
2018-02-24T18:35:24.603Z,18.00
2018-02-24T18:37:52.252Z,12.93
2018-02-24T18:40:19.847Z,18.40
2018-02-24T18:42:47.470Z,16.70
2018-02-24T18:45:15.054Z,10.77
2018-02-24T18:47:42.620Z,12.37
2018-02-24T18:50:10.324Z,12.23
2018-02-24T18:52:38.011Z,13.10
2018-02-24T18:55:05.915Z,10.67
2018-02-24T18:57:34.416Z,18.40
2018-02-24T19:00:02.197Z,30.47
2018-02-24T19:02:29.918Z,17.23
2018-02-24T19:04:57.491Z,7.83
2018-02-24T19:07:25.287Z,12.20
2018-02-24T19:09:54.201Z,9.70
2018-02-24T19:12:22.219Z,9.93
2018-02-24T19:14:49.832Z,9.63
2018-02-24T19:17:18.708Z,12.80
2018-02-24T19:19:46.394Z,9.53
2018-02-24T19:22:14.010Z,12.17
2018-02-24T19:24:41.597Z,10.63
2018-02-24T19:27:09.410Z,6.73
2018-02-24T19:29:37.407Z,8.43
2018-02-24T19:32:05.311Z,7.60
2018-02-24T19:34:51.566Z,8.17
2018-02-24T19:37:19.283Z,10.83
2018-02-24T19:39:47.081Z,6.37
2018-02-24T19:42:14.930Z,13.30
2018-02-24T19:44:42.559Z,9.63
2018-02-24T19:47:10.845Z,15.53
2018-02-24T19:49:38.520Z,13.30
2018-02-24T19:52:06.156Z,8.67
2018-02-24T19:54:33.883Z,16.23
2018-02-24T19:57:01.483Z,11.47
2018-02-24T19:59:46.687Z,8.53
2018-02-24T20:02:14.276Z,9.40
2018-02-24T20:04:41.816Z,8.43
2018-02-24T20:07:09.742Z,9.77
2018-02-24T20:09:37.318Z,12.33
2018-02-24T20:12:27.108Z,9.77
2018-02-24T20:14:54.678Z,11.40
2018-02-24T20:17:24.639Z,12.43
2018-02-24T20:19:52.323Z,9.90
2018-02-24T20:22:20.083Z,12.13
2018-02-24T20:24:47.714Z,11.63
2018-02-24T20:27:15.350Z,11.47
2018-02-24T20:29:43.311Z,14.20
2018-02-24T20:32:10.897Z,11.67
2018-02-24T20:34:38.681Z,14.37
2018-02-24T20:37:06.678Z,11.37
2018-02-24T20:39:34.392Z,15.73
2018-02-24T20:42:01.974Z,9.83
2018-02-24T20:44:31.445Z,11.13
2018-02-24T20:46:59.288Z,14.83
2018-02-24T20:49:27.712Z,13.40
2018-02-24T20:51:55.465Z,14.23
2018-02-24T20:54:27.320Z,12.53
2018-02-24T20:56:55.464Z,12.00
2018-02-24T20:59:23.148Z,12.10
2018-02-24T21:01:50.734Z,8.97
2018-02-24T21:04:18.364Z,12.57
2018-02-24T21:06:50.054Z,15.27
2018-02-24T21:09:18.135Z,13.27
2018-02-24T21:11:46.031Z,14.00
2018-02-24T21:14:14.530Z,9.73
2018-02-24T21:16:42.182Z,13.63
2018-02-24T21:19:10.064Z,17.80
2018-02-24T21:21:37.885Z,18.43
2018-02-24T21:24:05.540Z,19.97
2018-02-24T21:26:33.187Z,13.87
2018-02-24T21:29:00.770Z,16.63
2018-02-24T21:31:29.834Z,17.50
2018-02-24T21:33:57.448Z,13.20
2018-02-24T21:36:25.350Z,15.63
2018-02-24T21:38:53.081Z,11.90
2018-02-24T21:41:20.747Z,14.30
2018-02-24T21:43:48.336Z,18.60
2018-02-24T21:46:15.965Z,13.50
2018-02-24T21:48:43.621Z,17.20
2018-02-24T21:51:12.052Z,19.27
2018-02-24T21:53:39.831Z,14.30
2018-02-24T21:56:07.552Z,15.40
2018-02-24T21:58:35.159Z,22.80
2018-02-24T22:01:03.184Z,17.73
2018-02-24T22:03:30.843Z,19.13
2018-02-24T22:05:58.491Z,14.80
2018-02-24T22:08:26.156Z,16.03
2018-02-24T22:10:53.793Z,14.77
2018-02-24T22:13:22.190Z,16.10
2018-02-24T22:15:49.896Z,22.53
2018-02-24T22:18:17.715Z,27.70
2018-02-24T22:20:45.617Z,16.23
2018-02-24T22:23:13.624Z,18.90
2018-02-24T22:25:41.466Z,16.73
2018-02-24T22:28:09.095Z,29.20
2018-02-24T22:30:36.702Z,20.20
2018-02-24T22:33:04.452Z,18.23
2018-02-24T22:35:32.381Z,23.07
2018-02-24T22:38:00.024Z,16.97
2018-02-24T22:40:27.699Z,22.67
2018-02-24T22:42:55.364Z,25.83
2018-02-24T22:45:23.208Z,25.27
2018-02-24T22:47:56.242Z,38.23
2018-02-24T22:50:23.948Z,26.13
2018-02-24T22:52:51.578Z,18.60
2018-02-24T22:55:19.902Z,35.30
2018-02-24T22:57:47.594Z,30.23
2018-02-24T23:00:15.247Z,25.77
2018-02-24T23:02:42.881Z,20.40
2018-02-24T23:05:11.575Z,32.17
2018-02-24T23:07:39.246Z,24.93
2018-02-24T23:10:07.540Z,27.60
2018-02-24T23:12:35.174Z,19.27
2018-02-24T23:15:02.995Z,20.10
2018-02-24T23:17:32.395Z,18.57
2018-02-24T23:20:00.083Z,31.03
2018-02-24T23:22:27.679Z,23.70
2018-02-24T23:24:55.272Z,34.77
2018-02-24T23:27:22.877Z,25.63
2018-02-24T23:29:50.497Z,26.03
2018-02-24T23:32:18.089Z,21.10
2018-02-24T23:34:45.688Z,15.10
2018-02-24T23:37:14.834Z,17.07
2018-02-24T23:39:43.674Z,25.60
2018-02-24T23:42:11.367Z,17.57
2018-02-24T23:44:38.984Z,22.73
2018-02-24T23:47:08.472Z,15.93
2018-02-24T23:49:36.076Z,31.37
2018-02-24T23:54:56.132Z,28.10
2018-02-24T23:57:24.385Z,23.50
2018-02-24T23:59:52.051Z,27.87
